LTFJ/SAW METAR and TAF weather

Enter ICAO airport designator
Station Type Date Time Source
LTFJ METAR 2020/09/19 19:20 UTC NOAA

LTFJ 191920Z 05011KT 9999 SCT040 19/13 Q1018 NOSIG


Station Type Date Time Source
LTFJ Decoded METAR 2020/09/19 19:20 UTC NOAA

Istanbul / Sabiha Gokcen, Turkey (LTFJ) 40-53-55N 029-18-33E
Sep 19, 2020 - 03:20 PM EDT / 2020.09.19 1920 UTC
Wind: from the NE (050 degrees) at 13 MPH (11 KT):0
Visibility: greater than 7 mile(s):0
Sky conditions: partly cloudy
Temperature: 66 F (19 C)
Dew Point: 55 F (13 C)
Relative Humidity: 68%
Pressure (altimeter): 30.06 in. Hg (1018 hPa)
ob: LTFJ 191920Z 05011KT 9999 SCT040 19/13 Q1018 NOSIG
cycle: 19

Station Type Date Time Source
LTFJ TAF 2020/09/19 18:03 UTC NOAA

TAF LTFJ 191640Z 1918/2018 03008KT 9999 SCT040
BECMG 1921/1924 BKN030 BKN080
TEMPO 2001/2005 -SHRA
BECMG 2005/2007 04018KT
TEMPO 2007/2011 -SHRA PROB40
TEMPO 2011/2015 04020G30KT -SHRA FEW020CB BKN030
BECMG 2015/2018 03008KT

Example: see airport list